sensor_id;sensor_type;location;lat;lon;timestamp;P1;durP1;ratioP1;P2;durP2;ratioP2
79677;SDS011;69145;45.544;10.214;2023-04-10T00:02:11;3.38;;;2.17;;
79677;SDS011;69145;45.544;10.214;2023-04-10T00:04:37;3.70;;;2.05;;
79677;SDS011;69145;45.544;10.214;2023-04-10T00:07:02;3.50;;;1.90;;
79677;SDS011;69145;45.544;10.214;2023-04-10T00:09:28;3.50;;;2.20;;
79677;SDS011;69145;45.544;10.214;2023-04-10T00:11:54;3.88;;;2.03;;
79677;SDS011;69145;45.544;10.214;2023-04-10T00:14:20;3.50;;;2.10;;
79677;SDS011;69145;45.544;10.214;2023-04-10T00:16:47;3.15;;;2.05;;
79677;SDS011;69145;45.544;10.214;2023-04-10T00:19:13;3.15;;;1.83;;
79677;SDS011;69145;45.544;10.214;2023-04-10T00:21:41;3.75;;;2.15;;
79677;SDS011;69145;45.544;10.214;2023-04-10T00:24:07;3.55;;;2.13;;
79677;SDS011;69145;45.544;10.214;2023-04-10T00:26:33;3.60;;;1.92;;
79677;SDS011;69145;45.544;10.214;2023-04-10T00:28:59;3.05;;;2.03;;
79677;SDS011;69145;45.544;10.214;2023-04-10T00:31:25;3.97;;;2.03;;
79677;SDS011;69145;45.544;10.214;2023-04-10T00:33:50;3.80;;;2.10;;
79677;SDS011;69145;45.544;10.214;2023-04-10T00:36:17;3.80;;;2.03;;
79677;SDS011;69145;45.544;10.214;2023-04-10T00:38:42;3.50;;;2.42;;
79677;SDS011;69145;45.544;10.214;2023-04-10T00:41:08;3.40;;;2.00;;
79677;SDS011;69145;45.544;10.214;2023-04-10T00:43:33;3.10;;;2.10;;
79677;SDS011;69145;45.544;10.214;2023-04-10T00:45:59;3.70;;;1.90;;
79677;SDS011;69145;45.544;10.214;2023-04-10T00:48:25;4.60;;;2.17;;
79677;SDS011;69145;45.544;10.214;2023-04-10T00:50:51;3.65;;;1.75;;
79677;SDS011;69145;45.544;10.214;2023-04-10T00:53:16;3.70;;;2.30;;
79677;SDS011;69145;45.544;10.214;2023-04-10T00:55:42;3.10;;;2.10;;
79677;SDS011;69145;45.544;10.214;2023-04-10T00:58:08;3.65;;;2.17;;
79677;SDS011;69145;45.544;10.214;2023-04-10T01:00:38;3.28;;;2.45;;
79677;SDS011;69145;45.544;10.214;2023-04-10T01:03:05;3.58;;;2.10;;
79677;SDS011;69145;45.544;10.214;2023-04-10T01:05:36;3.30;;;2.15;;
79677;SDS011;69145;45.544;10.214;2023-04-10T01:11:09;3.53;;;2.40;;
79677;SDS011;69145;45.544;10.214;2023-04-10T01:13:44;3.50;;;2.08;;
79677;SDS011;69145;45.544;10.214;2023-04-10T01:18:48;2.88;;;1.85;;
79677;SDS011;69145;45.544;10.214;2023-04-10T01:21:18;3.50;;;2.28;;
79677;SDS011;69145;45.544;10.214;2023-04-10T01:23:52;4.07;;;2.03;;
79677;SDS011;69145;45.544;10.214;2023-04-10T01:29:13;3.92;;;2.13;;
79677;SDS011;69145;45.544;10.214;2023-04-10T01:32:03;3.92;;;2.20;;
79677;SDS011;69145;45.544;10.214;2023-04-10T01:37:15;3.47;;;2.33;;
79677;SDS011;69145;45.544;10.214;2023-04-10T01:39:58;3.28;;;1.88;;
79677;SDS011;69145;45.544;10.214;2023-04-10T01:42:31;3.53;;;2.03;;
79677;SDS011;69145;45.544;10.214;2023-04-10T01:45:00;3.30;;;1.67;;
79677;SDS011;69145;45.544;10.214;2023-04-10T01:47:27;3.90;;;2.20;;
79677;SDS011;69145;45.544;10.214;2023-04-10T01:49:54;3.10;;;1.90;;
79677;SDS011;69145;45.544;10.214;2023-04-10T01:52:21;3.63;;;2.13;;
79677;SDS011;69145;45.544;10.214;2023-04-10T01:54:48;3.90;;;2.40;;
79677;SDS011;69145;45.544;10.214;2023-04-10T01:57:15;3.13;;;1.92;;
79677;SDS011;69145;45.544;10.214;2023-04-10T01:59:41;3.25;;;2.13;;
79677;SDS011;69145;45.544;10.214;2023-04-10T02:02:08;3.70;;;2.55;;
79677;SDS011;69145;45.544;10.214;2023-04-10T02:04:35;4.15;;;2.22;;
79677;SDS011;69145;45.544;10.214;2023-04-10T02:07:02;4.10;;;2.53;;
79677;SDS011;69145;45.544;10.214;2023-04-10T02:12:09;3.78;;;2.28;;
79677;SDS011;69145;45.544;10.214;2023-04-10T02:14:44;3.50;;;2.30;;
79677;SDS011;69145;45.544;10.214;2023-04-10T02:17:16;3.72;;;2.65;;
79677;SDS011;69145;45.544;10.214;2023-04-10T02:19:48;3.20;;;2.15;;
79677;SDS011;69145;45.544;10.214;2023-04-10T02:22:17;3.08;;;2.30;;
79677;SDS011;69145;45.544;10.214;2023-04-10T02:24:42;3.50;;;2.42;;
79677;SDS011;69145;45.544;10.214;2023-04-10T02:27:08;3.37;;;1.73;;
79677;SDS011;69145;45.544;10.214;2023-04-10T02:29:36;4.10;;;2.10;;
79677;SDS011;69145;45.544;10.214;2023-04-10T02:32:02;3.00;;;1.87;;
79677;SDS011;69145;45.544;10.214;2023-04-10T02:34:28;4.20;;;2.38;;
79677;SDS011;69145;45.544;10.214;2023-04-10T02:36:54;3.13;;;1.92;;
79677;SDS011;69145;45.544;10.214;2023-04-10T02:39:19;3.53;;;2.10;;
79677;SDS011;69145;45.544;10.214;2023-04-10T02:41:45;3.15;;;2.20;;
79677;SDS011;69145;45.544;10.214;2023-04-10T02:44:11;3.88;;;2.28;;
79677;SDS011;69145;45.544;10.214;2023-04-10T02:46:37;3.55;;;1.83;;
79677;SDS011;69145;45.544;10.214;2023-04-10T02:49:03;3.83;;;2.00;;
79677;SDS011;69145;45.544;10.214;2023-04-10T02:51:33;4.10;;;2.28;;
79677;SDS011;69145;45.544;10.214;2023-04-10T02:53:59;3.53;;;2.20;;
79677;SDS011;69145;45.544;10.214;2023-04-10T02:56:24;3.57;;;2.10;;
79677;SDS011;69145;45.544;10.214;2023-04-10T02:58:51;3.05;;;1.90;;
79677;SDS011;69145;45.544;10.214;2023-04-10T03:01:20;3.35;;;2.05;;
79677;SDS011;69145;45.544;10.214;2023-04-10T03:03:46;3.88;;;2.10;;
79677;SDS011;69145;45.544;10.214;2023-04-10T03:06:13;3.30;;;1.88;;
79677;SDS011;69145;45.544;10.214;2023-04-10T03:08:39;3.42;;;2.25;;
79677;SDS011;69145;45.544;10.214;2023-04-10T03:11:06;4.15;;;2.42;;
79677;SDS011;69145;45.544;10.214;2023-04-10T03:13:32;3.60;;;2.05;;
79677;SDS011;69145;45.544;10.214;2023-04-10T03:16:03;3.65;;;2.22;;
79677;SDS011;69145;45.544;10.214;2023-04-10T03:18:29;3.58;;;2.20;;
79677;SDS011;69145;45.544;10.214;2023-04-10T03:21:01;3.67;;;2.42;;
79677;SDS011;69145;45.544;10.214;2023-04-10T03:23:26;5.03;;;2.33;;
79677;SDS011;69145;45.544;10.214;2023-04-10T03:25:52;3.17;;;1.85;;
79677;SDS011;69145;45.544;10.214;2023-04-10T03:28:18;3.60;;;2.17;;
79677;SDS011;69145;45.544;10.214;2023-04-10T03:33:39;3.10;;;1.85;;
79677;SDS011;69145;45.544;10.214;2023-04-10T03:36:05;3.30;;;2.05;;
79677;SDS011;69145;45.544;10.214;2023-04-10T03:38:30;4.10;;;2.72;;
79677;SDS011;69145;45.544;10.214;2023-04-10T03:40:56;3.37;;;2.00;;
79677;SDS011;69145;45.544;10.214;2023-04-10T03:43:21;3.20;;;2.10;;
79677;SDS011;69145;45.544;10.214;2023-04-10T03:45:47;3.58;;;2.03;;
79677;SDS011;69145;45.544;10.214;2023-04-10T03:48:13;3.70;;;2.15;;
79677;SDS011;69145;45.544;10.214;2023-04-10T03:50:38;3.70;;;2.30;;
79677;SDS011;69145;45.544;10.214;2023-04-10T03:53:03;3.90;;;2.47;;
79677;SDS011;69145;45.544;10.214;2023-04-10T03:55:29;3.70;;;2.03;;
79677;SDS011;69145;45.544;10.214;2023-04-10T03:57:54;3.20;;;2.03;;
79677;SDS011;69145;45.544;10.214;2023-04-10T04:00:20;3.95;;;2.03;;
79677;SDS011;69145;45.544;10.214;2023-04-10T04:02:46;3.95;;;2.65;;
79677;SDS011;69145;45.544;10.214;2023-04-10T04:05:14;4.75;;;2.15;;
79677;SDS011;69145;45.544;10.214;2023-04-10T04:07:39;3.25;;;1.92;;
79677;SDS011;69145;45.544;10.214;2023-04-10T04:10:05;3.43;;;2.30;;
79677;SDS011;69145;45.544;10.214;2023-04-10T04:12:31;3.92;;;2.13;;
79677;SDS011;69145;45.544;10.214;2023-04-10T04:14:56;4.67;;;2.60;;
79677;SDS011;69145;45.544;10.214;2023-04-10T04:17:21;4.43;;;2.17;;
79677;SDS011;69145;45.544;10.214;2023-04-10T04:19:47;3.85;;;2.70;;
79677;SDS011;69145;45.544;10.214;2023-04-10T04:22:12;3.83;;;2.63;;
79677;SDS011;69145;45.544;10.214;2023-04-10T04:24:38;4.18;;;2.40;;
79677;SDS011;69145;45.544;10.214;2023-04-10T04:27:03;5.33;;;2.23;;
79677;SDS011;69145;45.544;10.214;2023-04-10T04:29:28;4.47;;;2.63;;
79677;SDS011;69145;45.544;10.214;2023-04-10T04:31:54;3.80;;;2.28;;
79677;SDS011;69145;45.544;10.214;2023-04-10T04:34:20;4.72;;;2.65;;
79677;SDS011;69145;45.544;10.214;2023-04-10T04:36:45;4.43;;;2.28;;
79677;SDS011;69145;45.544;10.214;2023-04-10T04:39:15;4.53;;;2.83;;
79677;SDS011;69145;45.544;10.214;2023-04-10T04:41:41;5.20;;;2.40;;
79677;SDS011;69145;45.544;10.214;2023-04-10T04:44:06;3.97;;;2.37;;
79677;SDS011;69145;45.544;10.214;2023-04-10T04:46:32;4.57;;;2.20;;
79677;SDS011;69145;45.544;10.214;2023-04-10T04:48:57;4.57;;;2.10;;
79677;SDS011;69145;45.544;10.214;2023-04-10T04:51:22;4.15;;;2.25;;
79677;SDS011;69145;45.544;10.214;2023-04-10T04:53:48;5.67;;;2.20;;
79677;SDS011;69145;45.544;10.214;2023-04-10T04:56:13;4.18;;;2.17;;
79677;SDS011;69145;45.544;10.214;2023-04-10T04:58:39;3.97;;;2.22;;
79677;SDS011;69145;45.544;10.214;2023-04-10T05:01:08;4.00;;;2.00;;
79677;SDS011;69145;45.544;10.214;2023-04-10T05:03:34;3.35;;;2.08;;
79677;SDS011;69145;45.544;10.214;2023-04-10T05:05:59;3.73;;;2.23;;
79677;SDS011;69145;45.544;10.214;2023-04-10T05:08:24;4.10;;;2.40;;
79677;SDS011;69145;45.544;10.214;2023-04-10T05:10:50;3.42;;;2.13;;
79677;SDS011;69145;45.544;10.214;2023-04-10T05:13:16;4.15;;;2.17;;
79677;SDS011;69145;45.544;10.214;2023-04-10T05:15:44;4.15;;;2.65;;
79677;SDS011;69145;45.544;10.214;2023-04-10T05:18:09;4.43;;;2.63;;
79677;SDS011;69145;45.544;10.214;2023-04-10T05:20:35;4.20;;;2.60;;
79677;SDS011;69145;45.544;10.214;2023-04-10T05:23:01;4.03;;;2.58;;
79677;SDS011;69145;45.544;10.214;2023-04-10T05:25:27;3.80;;;2.20;;
79677;SDS011;69145;45.544;10.214;2023-04-10T05:27:52;3.92;;;2.58;;
79677;SDS011;69145;45.544;10.214;2023-04-10T05:30:18;4.60;;;2.37;;
79677;SDS011;69145;45.544;10.214;2023-04-10T05:32:43;3.50;;;2.30;;
79677;SDS011;69145;45.544;10.214;2023-04-10T05:35:10;3.97;;;2.40;;
79677;SDS011;69145;45.544;10.214;2023-04-10T05:37:35;3.83;;;2.38;;
79677;SDS011;69145;45.544;10.214;2023-04-10T05:40:00;4.73;;;2.63;;
79677;SDS011;69145;45.544;10.214;2023-04-10T05:42:26;4.90;;;2.30;;
79677;SDS011;69145;45.544;10.214;2023-04-10T05:44:51;4.18;;;2.28;;
79677;SDS011;69145;45.544;10.214;2023-04-10T05:47:20;4.35;;;2.67;;
79677;SDS011;69145;45.544;10.214;2023-04-10T05:49:46;3.80;;;2.40;;
79677;SDS011;69145;45.544;10.214;2023-04-10T05:52:18;4.23;;;3.07;;
79677;SDS011;69145;45.544;10.214;2023-04-10T05:54:51;4.18;;;2.55;;
79677;SDS011;69145;45.544;10.214;2023-04-10T05:57:17;4.10;;;2.72;;
79677;SDS011;69145;45.544;10.214;2023-04-10T05:59:42;5.00;;;2.40;;
79677;SDS011;69145;45.544;10.214;2023-04-10T06:02:08;4.07;;;2.58;;
79677;SDS011;69145;45.544;10.214;2023-04-10T06:04:33;3.83;;;2.40;;
79677;SDS011;69145;45.544;10.214;2023-04-10T06:06:59;4.00;;;2.90;;
79677;SDS011;69145;45.544;10.214;2023-04-10T06:09:28;4.53;;;2.67;;
79677;SDS011;69145;45.544;10.214;2023-04-10T06:11:53;4.70;;;2.75;;
79677;SDS011;69145;45.544;10.214;2023-04-10T06:14:19;4.47;;;2.60;;
79677;SDS011;69145;45.544;10.214;2023-04-10T06:16:47;4.90;;;3.45;;
79677;SDS011;69145;45.544;10.214;2023-04-10T06:19:12;3.78;;;2.55;;
79677;SDS011;69145;45.544;10.214;2023-04-10T06:21:38;4.35;;;2.53;;
79677;SDS011;69145;45.544;10.214;2023-04-10T06:24:03;5.00;;;2.58;;
79677;SDS011;69145;45.544;10.214;2023-04-10T06:26:30;4.05;;;2.70;;
79677;SDS011;69145;45.544;10.214;2023-04-10T06:28:57;4.35;;;2.65;;
79677;SDS011;69145;45.544;10.214;2023-04-10T06:31:22;4.25;;;2.65;;
79677;SDS011;69145;45.544;10.214;2023-04-10T06:33:48;4.93;;;2.70;;
79677;SDS011;69145;45.544;10.214;2023-04-10T06:36:26;4.43;;;2.42;;
79677;SDS011;69145;45.544;10.214;2023-04-10T06:38:52;4.20;;;2.50;;
79677;SDS011;69145;45.544;10.214;2023-04-10T06:41:18;4.17;;;2.90;;
79677;SDS011;69145;45.544;10.214;2023-04-10T06:43:43;4.03;;;2.60;;
79677;SDS011;69145;45.544;10.214;2023-04-10T06:46:12;4.28;;;2.20;;
79677;SDS011;69145;45.544;10.214;2023-04-10T06:48:41;4.30;;;2.08;;
79677;SDS011;69145;45.544;10.214;2023-04-10T06:51:07;3.75;;;2.22;;
79677;SDS011;69145;45.544;10.214;2023-04-10T06:53:32;3.43;;;2.33;;
79677;SDS011;69145;45.544;10.214;2023-04-10T06:55:58;3.53;;;2.47;;
79677;SDS011;69145;45.544;10.214;2023-04-10T06:58:24;3.63;;;2.00;;
79677;SDS011;69145;45.544;10.214;2023-04-10T07:00:49;3.33;;;1.75;;
79677;SDS011;69145;45.544;10.214;2023-04-10T07:03:15;3.17;;;1.95;;
79677;SDS011;69145;45.544;10.214;2023-04-10T07:05:40;3.50;;;2.10;;
79677;SDS011;69145;45.544;10.214;2023-04-10T07:08:06;3.93;;;2.20;;
79677;SDS011;69145;45.544;10.214;2023-04-10T07:10:32;4.03;;;2.58;;
79677;SDS011;69145;45.544;10.214;2023-04-10T07:12:58;4.78;;;2.33;;
79677;SDS011;69145;45.544;10.214;2023-04-10T07:15:23;3.53;;;2.13;;
79677;SDS011;69145;45.544;10.214;2023-04-10T07:17:49;4.22;;;2.00;;
79677;SDS011;69145;45.544;10.214;2023-04-10T07:20:15;3.60;;;1.80;;
79677;SDS011;69145;45.544;10.214;2023-04-10T07:22:40;3.85;;;2.13;;
79677;SDS011;69145;45.544;10.214;2023-04-10T07:25:06;3.63;;;2.25;;
79677;SDS011;69145;45.544;10.214;2023-04-10T07:27:32;4.05;;;2.47;;
79677;SDS011;69145;45.544;10.214;2023-04-10T07:29:58;3.90;;;2.20;;
79677;SDS011;69145;45.544;10.214;2023-04-10T07:32:23;3.83;;;2.13;;
79677;SDS011;69145;45.544;10.214;2023-04-10T07:34:48;3.60;;;1.85;;
79677;SDS011;69145;45.544;10.214;2023-04-10T07:37:14;3.70;;;2.05;;
79677;SDS011;69145;45.544;10.214;2023-04-10T07:39:40;3.63;;;2.20;;
79677;SDS011;69145;45.544;10.214;2023-04-10T07:42:06;4.95;;;2.15;;
79677;SDS011;69145;45.544;10.214;2023-04-10T07:44:31;3.77;;;1.73;;
79677;SDS011;69145;45.544;10.214;2023-04-10T07:46:56;3.50;;;1.67;;
79677;SDS011;69145;45.544;10.214;2023-04-10T07:49:22;3.25;;;2.42;;
79677;SDS011;69145;45.544;10.214;2023-04-10T07:51:48;3.40;;;2.40;;
79677;SDS011;69145;45.544;10.214;2023-04-10T07:54:14;4.53;;;2.28;;
79677;SDS011;69145;45.544;10.214;2023-04-10T07:56:41;4.20;;;2.33;;
79677;SDS011;69145;45.544;10.214;2023-04-10T07:59:10;3.88;;;2.05;;
79677;SDS011;69145;45.544;10.214;2023-04-10T08:01:36;4.07;;;2.13;;
79677;SDS011;69145;45.544;10.214;2023-04-10T08:04:01;4.70;;;2.70;;
79677;SDS011;69145;45.544;10.214;2023-04-10T08:06:27;3.08;;;1.85;;
79677;SDS011;69145;45.544;10.214;2023-04-10T08:08:52;4.28;;;2.45;;
79677;SDS011;69145;45.544;10.214;2023-04-10T08:11:27;4.17;;;2.47;;
79677;SDS011;69145;45.544;10.214;2023-04-10T08:13:55;3.75;;;2.33;;
79677;SDS011;69145;45.544;10.214;2023-04-10T08:16:25;3.25;;;2.03;;
79677;SDS011;69145;45.544;10.214;2023-04-10T08:18:54;3.40;;;2.13;;
79677;SDS011;69145;45.544;10.214;2023-04-10T08:21:21;3.20;;;2.00;;
79677;SDS011;69145;45.544;10.214;2023-04-10T08:23:52;4.32;;;2.42;;
79677;SDS011;69145;45.544;10.214;2023-04-10T08:26:18;5.65;;;2.17;;
79677;SDS011;69145;45.544;10.214;2023-04-10T08:28:45;3.83;;;2.25;;
79677;SDS011;69145;45.544;10.214;2023-04-10T08:31:14;4.07;;;2.33;;
79677;SDS011;69145;45.544;10.214;2023-04-10T08:33:39;4.05;;;2.30;;
79677;SDS011;69145;45.544;10.214;2023-04-10T08:36:05;4.05;;;2.42;;
79677;SDS011;69145;45.544;10.214;2023-04-10T08:38:32;3.60;;;2.00;;
79677;SDS011;69145;45.544;10.214;2023-04-10T08:40:57;4.40;;;2.40;;
79677;SDS011;69145;45.544;10.214;2023-04-10T08:43:23;5.10;;;2.73;;
79677;SDS011;69145;45.544;10.214;2023-04-10T08:45:49;3.97;;;2.73;;
79677;SDS011;69145;45.544;10.214;2023-04-10T08:48:16;4.47;;;2.33;;
79677;SDS011;69145;45.544;10.214;2023-04-10T08:50:44;4.20;;;2.72;;
79677;SDS011;69145;45.544;10.214;2023-04-10T08:53:10;4.38;;;2.47;;
79677;SDS011;69145;45.544;10.214;2023-04-10T08:55:38;3.35;;;2.33;;
79677;SDS011;69145;45.544;10.214;2023-04-10T08:58:04;4.38;;;2.53;;
79677;SDS011;69145;45.544;10.214;2023-04-10T09:00:32;3.75;;;2.20;;
79677;SDS011;69145;45.544;10.214;2023-04-10T09:02:58;5.03;;;2.40;;
79677;SDS011;69145;45.544;10.214;2023-04-10T09:05:27;3.88;;;2.83;;
79677;SDS011;69145;45.544;10.214;2023-04-10T09:07:53;4.57;;;2.38;;
79677;SDS011;69145;45.544;10.214;2023-04-10T09:10:19;4.10;;;2.42;;
79677;SDS011;69145;45.544;10.214;2023-04-10T09:12:45;3.83;;;2.33;;
79677;SDS011;69145;45.544;10.214;2023-04-10T09:15:11;4.05;;;2.28;;
79677;SDS011;69145;45.544;10.214;2023-04-10T09:17:38;3.95;;;2.47;;
79677;SDS011;69145;45.544;10.214;2023-04-10T09:20:20;5.75;;;2.40;;
79677;SDS011;69145;45.544;10.214;2023-04-10T09:22:47;4.13;;;2.50;;
79677;SDS011;69145;45.544;10.214;2023-04-10T09:25:27;3.57;;;2.23;;
79677;SDS011;69145;45.544;10.214;2023-04-10T09:28:12;3.40;;;2.22;;
79677;SDS011;69145;45.544;10.214;2023-04-10T09:30:38;3.87;;;2.60;;
79677;SDS011;69145;45.544;10.214;2023-04-10T09:35:54;4.13;;;2.55;;
79677;SDS011;69145;45.544;10.214;2023-04-10T09:38:22;4.43;;;2.72;;
79677;SDS011;69145;45.544;10.214;2023-04-10T09:40:47;4.60;;;2.40;;
79677;SDS011;69145;45.544;10.214;2023-04-10T09:43:25;4.80;;;2.58;;
79677;SDS011;69145;45.544;10.214;2023-04-10T09:45:55;3.95;;;2.35;;
79677;SDS011;69145;45.544;10.214;2023-04-10T09:48:22;4.50;;;2.35;;
79677;SDS011;69145;45.544;10.214;2023-04-10T09:50:48;4.10;;;2.65;;
79677;SDS011;69145;45.544;10.214;2023-04-10T09:53:14;5.03;;;3.10;;
79677;SDS011;69145;45.544;10.214;2023-04-10T09:55:43;4.43;;;2.65;;
79677;SDS011;69145;45.544;10.214;2023-04-10T09:58:10;4.97;;;3.13;;
79677;SDS011;69145;45.544;10.214;2023-04-10T10:00:37;4.00;;;2.83;;
79677;SDS011;69145;45.544;10.214;2023-04-10T10:03:06;4.85;;;2.72;;
79677;SDS011;69145;45.544;10.214;2023-04-10T10:05:37;4.10;;;2.63;;
79677;SDS011;69145;45.544;10.214;2023-04-10T10:08:05;4.40;;;2.67;;
79677;SDS011;69145;45.544;10.214;2023-04-10T10:10:31;4.50;;;3.08;;
79677;SDS011;69145;45.544;10.214;2023-04-10T10:13:00;4.65;;;2.83;;
79677;SDS011;69145;45.544;10.214;2023-04-10T10:15:43;139.75;;;112.93;;
79677;SDS011;69145;45.544;10.214;2023-04-10T10:18:20;59.58;;;45.40;;
79677;SDS011;69145;45.544;10.214;2023-04-10T10:20:51;63.63;;;49.65;;
79677;SDS011;69145;45.544;10.214;2023-04-10T10:23:19;59.40;;;45.70;;
79677;SDS011;69145;45.544;10.214;2023-04-10T10:25:48;58.92;;;46.20;;
79677;SDS011;69145;45.544;10.214;2023-04-10T10:28:17;45.40;;;36.50;;
79677;SDS011;69145;45.544;10.214;2023-04-10T10:30:44;46.78;;;38.20;;
79677;SDS011;69145;45.544;10.214;2023-04-10T10:33:12;39.70;;;32.03;;
79677;SDS011;69145;45.544;10.214;2023-04-10T10:35:38;40.67;;;32.60;;
79677;SDS011;69145;45.544;10.214;2023-04-10T10:38:04;41.08;;;33.47;;
79677;SDS011;69145;45.544;10.214;2023-04-10T10:43:51;29.63;;;24.25;;
79677;SDS011;69145;45.544;10.214;2023-04-10T10:46:37;29.90;;;24.92;;
79677;SDS011;69145;45.544;10.214;2023-04-10T10:49:07;29.50;;;26.10;;
79677;SDS011;69145;45.544;10.214;2023-04-10T10:51:42;26.85;;;21.35;;
79677;SDS011;69145;45.544;10.214;2023-04-10T10:56:55;23.45;;;19.85;;
79677;SDS011;69145;45.544;10.214;2023-04-10T11:04:41;22.13;;;17.85;;
79677;SDS011;69145;45.544;10.214;2023-04-10T11:07:10;22.42;;;17.50;;
79677;SDS011;69145;45.544;10.214;2023-04-10T11:09:43;18.75;;;15.23;;
79677;SDS011;69145;45.544;10.214;2023-04-10T11:12:22;18.88;;;15.25;;
79677;SDS011;69145;45.544;10.214;2023-04-10T11:20:21;19.17;;;16.48;;
79677;SDS011;69145;45.544;10.214;2023-04-10T11:23:09;16.05;;;12.70;;
79677;SDS011;69145;45.544;10.214;2023-04-10T11:30:55;14.32;;;11.63;;
79677;SDS011;69145;45.544;10.214;2023-04-10T11:33:39;13.32;;;10.23;;
79677;SDS011;69145;45.544;10.214;2023-04-10T11:36:12;12.88;;;10.40;;
79677;SDS011;69145;45.544;10.214;2023-04-10T11:41:47;12.85;;;10.80;;
79677;SDS011;69145;45.544;10.214;2023-04-10T11:47:03;11.25;;;8.40;;
79677;SDS011;69145;45.544;10.214;2023-04-10T11:49:32;10.73;;;8.02;;
79677;SDS011;69145;45.544;10.214;2023-04-10T11:51:58;12.25;;;9.02;;
79677;SDS011;69145;45.544;10.214;2023-04-10T11:54:27;11.23;;;9.63;;
79677;SDS011;69145;45.544;10.214;2023-04-10T11:59:31;10.55;;;8.35;;
79677;SDS011;69145;45.544;10.214;2023-04-10T12:02:05;12.52;;;8.43;;
79677;SDS011;69145;45.544;10.214;2023-04-10T12:04:35;11.10;;;9.43;;
79677;SDS011;69145;45.544;10.214;2023-04-10T12:07:01;9.95;;;7.80;;
79677;SDS011;69145;45.544;10.214;2023-04-10T12:09:32;10.40;;;7.50;;
79677;SDS011;69145;45.544;10.214;2023-04-10T12:12:02;10.93;;;7.85;;
79677;SDS011;69145;45.544;10.214;2023-04-10T12:14:29;9.35;;;6.97;;
79677;SDS011;69145;45.544;10.214;2023-04-10T12:16:56;8.48;;;6.85;;
79677;SDS011;69145;45.544;10.214;2023-04-10T12:19:22;7.82;;;5.80;;
79677;SDS011;69145;45.544;10.214;2023-04-10T12:21:49;8.20;;;6.60;;
79677;SDS011;69145;45.544;10.214;2023-04-10T12:27:07;6.90;;;5.68;;
79677;SDS011;69145;45.544;10.214;2023-04-10T12:29:41;7.35;;;6.03;;
79677;SDS011;69145;45.544;10.214;2023-04-10T12:32:08;7.65;;;5.55;;
79677;SDS011;69145;45.544;10.214;2023-04-10T12:34:34;8.00;;;6.05;;
79677;SDS011;69145;45.544;10.214;2023-04-10T12:37:00;7.70;;;5.55;;
79677;SDS011;69145;45.544;10.214;2023-04-10T12:39:27;7.80;;;5.43;;
79677;SDS011;69145;45.544;10.214;2023-04-10T12:41:53;7.65;;;5.40;;
79677;SDS011;69145;45.544;10.214;2023-04-10T12:47:26;6.70;;;5.35;;
79677;SDS011;69145;45.544;10.214;2023-04-10T12:50:07;7.38;;;4.85;;
79677;SDS011;69145;45.544;10.214;2023-04-10T12:53:00;6.93;;;4.60;;
79677;SDS011;69145;45.544;10.214;2023-04-10T12:55:32;7.55;;;5.20;;
79677;SDS011;69145;45.544;10.214;2023-04-10T12:57:57;6.70;;;4.93;;
79677;SDS011;69145;45.544;10.214;2023-04-10T13:00:42;6.95;;;4.85;;
79677;SDS011;69145;45.544;10.214;2023-04-10T13:03:07;6.65;;;4.57;;
79677;SDS011;69145;45.544;10.214;2023-04-10T13:05:36;6.25;;;4.78;;
79677;SDS011;69145;45.544;10.214;2023-04-10T13:08:02;6.97;;;5.10;;
79677;SDS011;69145;45.544;10.214;2023-04-10T13:10:27;7.72;;;5.13;;
79677;SDS011;69145;45.544;10.214;2023-04-10T13:12:57;6.00;;;4.13;;
79677;SDS011;69145;45.544;10.214;2023-04-10T13:15:27;8.25;;;4.60;;
79677;SDS011;69145;45.544;10.214;2023-04-10T13:17:52;6.50;;;4.10;;
79677;SDS011;69145;45.544;10.214;2023-04-10T13:20:20;5.80;;;3.93;;
79677;SDS011;69145;45.544;10.214;2023-04-10T13:22:49;6.35;;;4.38;;
79677;SDS011;69145;45.544;10.214;2023-04-10T13:25:15;6.60;;;4.43;;
79677;SDS011;69145;45.544;10.214;2023-04-10T13:27:40;5.47;;;3.38;;
79677;SDS011;69145;45.544;10.214;2023-04-10T13:30:06;6.40;;;4.03;;
79677;SDS011;69145;45.544;10.214;2023-04-10T13:32:31;6.03;;;3.92;;
79677;SDS011;69145;45.544;10.214;2023-04-10T13:34:57;6.00;;;4.43;;
79677;SDS011;69145;45.544;10.214;2023-04-10T13:37:22;5.38;;;3.97;;
79677;SDS011;69145;45.544;10.214;2023-04-10T13:39:50;6.38;;;3.70;;
79677;SDS011;69145;45.544;10.214;2023-04-10T13:42:15;6.28;;;3.58;;
79677;SDS011;69145;45.544;10.214;2023-04-10T13:44:40;5.90;;;3.83;;
79677;SDS011;69145;45.544;10.214;2023-04-10T13:47:06;7.88;;;3.80;;
79677;SDS011;69145;45.544;10.214;2023-04-10T13:49:34;5.70;;;3.53;;
79677;SDS011;69145;45.544;10.214;2023-04-10T13:51:59;4.80;;;3.17;;
79677;SDS011;69145;45.544;10.214;2023-04-10T13:54:27;5.05;;;3.63;;
79677;SDS011;69145;45.544;10.214;2023-04-10T13:56:53;4.53;;;3.50;;
79677;SDS011;69145;45.544;10.214;2023-04-10T13:59:18;5.10;;;3.47;;
79677;SDS011;69145;45.544;10.214;2023-04-10T14:01:44;5.10;;;3.25;;
79677;SDS011;69145;45.544;10.214;2023-04-10T14:04:11;5.00;;;3.17;;
79677;SDS011;69145;45.544;10.214;2023-04-10T14:06:37;5.80;;;3.75;;
79677;SDS011;69145;45.544;10.214;2023-04-10T14:09:02;5.35;;;3.63;;
79677;SDS011;69145;45.544;10.214;2023-04-10T14:11:33;5.30;;;3.47;;
79677;SDS011;69145;45.544;10.214;2023-04-10T14:13:58;4.78;;;3.03;;
79677;SDS011;69145;45.544;10.214;2023-04-10T14:16:23;6.22;;;3.78;;
79677;SDS011;69145;45.544;10.214;2023-04-10T14:18:49;5.88;;;3.50;;
79677;SDS011;69145;45.544;10.214;2023-04-10T14:21:14;5.18;;;3.13;;
79677;SDS011;69145;45.544;10.214;2023-04-10T14:23:40;5.03;;;4.20;;
79677;SDS011;69145;45.544;10.214;2023-04-10T14:26:06;5.78;;;3.10;;
79677;SDS011;69145;45.544;10.214;2023-04-10T14:28:35;5.50;;;3.88;;
79677;SDS011;69145;45.544;10.214;2023-04-10T14:31:01;4.28;;;3.17;;
79677;SDS011;69145;45.544;10.214;2023-04-10T14:33:26;5.50;;;3.47;;
79677;SDS011;69145;45.544;10.214;2023-04-10T14:35:52;4.43;;;3.08;;
79677;SDS011;69145;45.544;10.214;2023-04-10T14:38:17;5.63;;;3.25;;
79677;SDS011;69145;45.544;10.214;2023-04-10T14:40:43;5.25;;;3.17;;
79677;SDS011;69145;45.544;10.214;2023-04-10T14:43:12;5.93;;;3.25;;
79677;SDS011;69145;45.544;10.214;2023-04-10T14:45:37;4.78;;;3.00;;
79677;SDS011;69145;45.544;10.214;2023-04-10T14:48:03;4.68;;;3.30;;
79677;SDS011;69145;45.544;10.214;2023-04-10T14:50:32;5.20;;;3.15;;
79677;SDS011;69145;45.544;10.214;2023-04-10T14:52:58;5.05;;;3.33;;
79677;SDS011;69145;45.544;10.214;2023-04-10T14:55:33;5.10;;;3.45;;
79677;SDS011;69145;45.544;10.214;2023-04-10T14:57:59;5.53;;;3.47;;
79677;SDS011;69145;45.544;10.214;2023-04-10T15:00:24;5.33;;;3.13;;
79677;SDS011;69145;45.544;10.214;2023-04-10T15:02:50;5.30;;;3.10;;
79677;SDS011;69145;45.544;10.214;2023-04-10T15:05:15;5.65;;;3.05;;
79677;SDS011;69145;45.544;10.214;2023-04-10T15:07:41;4.90;;;3.35;;
79677;SDS011;69145;45.544;10.214;2023-04-10T15:10:06;4.18;;;3.10;;
79677;SDS011;69145;45.544;10.214;2023-04-10T15:12:34;5.78;;;3.08;;
79677;SDS011;69145;45.544;10.214;2023-04-10T15:15:00;4.93;;;2.88;;
79677;SDS011;69145;45.544;10.214;2023-04-10T15:17:26;4.57;;;2.90;;
79677;SDS011;69145;45.544;10.214;2023-04-10T15:19:51;5.07;;;3.00;;
79677;SDS011;69145;45.544;10.214;2023-04-10T15:22:20;4.65;;;2.88;;
79677;SDS011;69145;45.544;10.214;2023-04-10T15:24:45;5.17;;;3.17;;
79677;SDS011;69145;45.544;10.214;2023-04-10T15:27:13;5.97;;;3.60;;
79677;SDS011;69145;45.544;10.214;2023-04-10T15:29:41;4.45;;;2.78;;
79677;SDS011;69145;45.544;10.214;2023-04-10T15:32:07;5.03;;;3.03;;